createdAt,value
2023-01-08T00:00:19.287Z,5.46
2023-01-08T00:02:50.074Z,5.65
2023-01-08T00:05:18.668Z,5.44
2023-01-08T00:07:48.551Z,5.36
2023-01-08T00:10:17.022Z,5.43
2023-01-08T00:12:45.596Z,5.27
2023-01-08T00:15:13.965Z,5.51
2023-01-08T00:17:42.243Z,5.49
2023-01-08T00:20:11.610Z,5.47
2023-01-08T00:22:39.842Z,5.37
2023-01-08T00:25:10.401Z,4.90
2023-01-08T00:27:38.651Z,5.31
2023-01-08T00:30:07.928Z,5.18
2023-01-08T00:32:36.277Z,5.33
2023-01-08T00:35:05.376Z,5.26
2023-01-08T00:37:34.767Z,5.32
2023-01-08T00:40:03.187Z,5.27
2023-01-08T00:42:32.932Z,5.26
2023-01-08T00:45:01.306Z,5.18
2023-01-08T00:47:29.650Z,5.24
2023-01-08T00:49:57.972Z,5.25
2023-01-08T00:52:26.713Z,4.71
2023-01-08T00:54:55.015Z,5.07
2023-01-08T00:57:23.378Z,5.09
2023-01-08T00:59:53.251Z,5.13
2023-01-08T01:02:21.645Z,5.21
2023-01-08T01:04:50.027Z,5.12
2023-01-08T01:07:18.846Z,5.21
2023-01-08T01:09:47.296Z,5.38
2023-01-08T01:12:15.709Z,5.24
2023-01-08T01:14:44.397Z,4.98
2023-01-08T01:17:14.687Z,4.99
2023-01-08T01:19:43.088Z,4.90
2023-01-08T01:22:11.412Z,4.98
2023-01-08T01:24:40.100Z,4.91
2023-01-08T01:27:08.452Z,4.90
2023-01-08T01:29:37.186Z,4.86
2023-01-08T01:32:06.321Z,4.84
2023-01-08T01:34:36.231Z,4.91
2023-01-08T01:37:05.329Z,4.86
2023-01-08T01:39:33.621Z,5.00
2023-01-08T01:42:01.945Z,5.01
2023-01-08T01:44:42.479Z,5.04
2023-01-08T01:47:22.247Z,4.98
2023-01-08T01:49:57.816Z,4.99
2023-01-08T01:52:28.453Z,5.06
2023-01-08T01:54:56.937Z,4.90
2023-01-08T01:57:26.640Z,4.97
2023-01-08T01:59:56.857Z,5.00
2023-01-08T02:02:25.316Z,5.00
2023-01-08T02:04:55.281Z,4.89
2023-01-08T02:07:30.305Z,5.01
2023-01-08T02:10:05.287Z,4.68
2023-01-08T02:12:37.611Z,5.01
2023-01-08T02:15:12.817Z,4.65
2023-01-08T02:17:50.178Z,5.10
2023-01-08T02:20:24.020Z,5.07
2023-01-08T02:23:21.789Z,5.23
2023-01-08T02:26:13.687Z,5.27
2023-01-08T02:28:47.490Z,5.30
2023-01-08T02:31:17.837Z,5.36
2023-01-08T02:33:47.198Z,5.21
2023-01-08T02:36:38.959Z,5.50
2023-01-08T02:39:21.730Z,5.54
2023-01-08T02:42:04.537Z,5.50
2023-01-08T02:44:41.708Z,5.55
2023-01-08T02:47:17.685Z,5.22
2023-01-08T02:49:48.493Z,5.60
2023-01-08T02:52:19.803Z,5.65
2023-01-08T02:54:49.990Z,5.57
2023-01-08T02:57:21.471Z,5.34
2023-01-08T02:59:51.408Z,5.50
2023-01-08T03:02:20.285Z,5.60
2023-01-08T03:05:02.116Z,5.49
2023-01-08T03:07:30.548Z,5.29
2023-01-08T03:09:59.580Z,5.67
2023-01-08T03:12:42.463Z,5.62
2023-01-08T03:15:15.127Z,5.64
2023-01-08T03:17:47.410Z,5.64
2023-01-08T03:20:18.659Z,5.67
2023-01-08T03:22:50.897Z,5.68
2023-01-08T03:25:21.920Z,5.53
2023-01-08T03:27:56.901Z,5.56
2023-01-08T03:30:27.150Z,5.78
2023-01-08T03:32:59.990Z,5.62
2023-01-08T03:35:29.607Z,5.72
2023-01-08T03:38:02.042Z,5.68
2023-01-08T03:40:36.600Z,5.52
2023-01-08T03:43:06.541Z,5.46
2023-01-08T03:45:38.781Z,5.75
2023-01-08T03:48:08.790Z,5.74
2023-01-08T03:50:37.212Z,5.74
2023-01-08T03:53:05.604Z,5.70
2023-01-08T03:55:33.984Z,5.60
2023-01-08T03:58:02.448Z,5.63
2023-01-08T04:00:32.220Z,5.54
2023-01-08T04:03:00.643Z,5.66
2023-01-08T04:05:29.168Z,5.65
2023-01-08T04:07:58.152Z,5.63
2023-01-08T04:10:27.099Z,5.64
2023-01-08T04:12:55.407Z,5.65
2023-01-08T04:15:23.983Z,5.70
2023-01-08T04:17:54.714Z,5.68
2023-01-08T04:20:23.444Z,5.71
2023-01-08T04:22:51.738Z,5.71
2023-01-08T04:25:20.647Z,5.71
2023-01-08T04:27:48.997Z,5.69
2023-01-08T04:30:17.527Z,5.63
2023-01-08T04:32:45.806Z,5.63
2023-01-08T04:35:15.693Z,5.67
2023-01-08T04:37:43.998Z,5.66
2023-01-08T04:40:12.963Z,5.62
2023-01-08T04:42:41.334Z,5.61
2023-01-08T04:45:10.751Z,5.27
2023-01-08T04:47:39.268Z,5.63
2023-01-08T04:50:08.764Z,5.63
2023-01-08T04:52:38.597Z,5.64
2023-01-08T04:55:07.744Z,5.69
2023-01-08T04:57:35.993Z,5.69
2023-01-08T05:00:04.479Z,5.67
2023-01-08T05:02:32.891Z,5.69
2023-01-08T05:05:01.496Z,5.70
2023-01-08T05:07:29.946Z,5.61
2023-01-08T05:09:59.826Z,5.70
2023-01-08T05:12:28.123Z,5.72
2023-01-08T05:14:56.470Z,5.74
2023-01-08T05:17:24.860Z,5.76
2023-01-08T05:19:53.219Z,5.74
2023-01-08T05:22:21.789Z,5.71
2023-01-08T05:24:50.135Z,5.66
2023-01-08T05:27:19.967Z,5.65
2023-01-08T05:29:48.256Z,5.66
2023-01-08T05:32:19.297Z,5.64
2023-01-08T05:34:47.676Z,5.63
2023-01-08T05:37:16.259Z,5.54
2023-01-08T05:39:44.528Z,5.66
2023-01-08T05:42:12.837Z,5.67
2023-01-08T05:44:42.549Z,5.69
2023-01-08T05:47:10.855Z,5.55
2023-01-08T05:49:39.308Z,5.70
2023-01-08T05:52:07.718Z,5.70
2023-01-08T05:54:36.101Z,5.75
2023-01-08T05:57:04.478Z,5.69
2023-01-08T05:59:32.762Z,5.69
2023-01-08T06:02:02.600Z,5.55
2023-01-08T06:04:30.986Z,5.67
2023-01-08T06:06:59.424Z,5.65
2023-01-08T06:09:27.759Z,5.71
2023-01-08T06:11:58.161Z,5.69
2023-01-08T06:14:26.468Z,5.67
2023-01-08T06:16:54.828Z,5.67
2023-01-08T06:19:24.789Z,5.69
2023-01-08T06:21:53.127Z,5.69
2023-01-08T06:24:21.512Z,5.69
2023-01-08T06:26:49.935Z,5.67
2023-01-08T06:29:18.273Z,5.68
2023-01-08T06:31:46.605Z,5.69
2023-01-08T06:34:15.087Z,5.70
2023-01-08T06:36:44.883Z,5.68
2023-01-08T06:39:13.375Z,5.63
2023-01-08T06:41:41.808Z,5.40
2023-01-08T06:44:10.249Z,5.45
2023-01-08T06:46:40.502Z,5.63
2023-01-08T06:49:09.179Z,5.66
2023-01-08T06:51:38.087Z,5.58
2023-01-08T06:54:07.846Z,5.55
2023-01-08T06:56:52.352Z,5.52
2023-01-08T06:59:21.543Z,5.46
2023-01-08T07:01:50.166Z,5.46
2023-01-08T07:04:18.910Z,5.49
2023-01-08T07:06:47.491Z,5.48
2023-01-08T07:09:17.449Z,5.40
2023-01-08T07:11:45.692Z,5.48
2023-01-08T07:14:14.263Z,5.41
2023-01-08T07:16:42.515Z,5.49
2023-01-08T07:19:10.863Z,5.48
2023-01-08T07:21:39.124Z,5.48
2023-01-08T07:24:08.314Z,5.43
2023-01-08T07:26:39.712Z,5.45
2023-01-08T07:29:08.090Z,5.46
2023-01-08T07:31:36.483Z,5.50
2023-01-08T07:34:04.898Z,5.45
2023-01-08T07:36:33.565Z,5.44
2023-01-08T07:39:01.963Z,5.43
2023-01-08T07:41:30.355Z,5.39
2023-01-08T07:44:00.165Z,5.37
2023-01-08T07:46:28.472Z,5.35
2023-01-08T07:48:57.620Z,5.29
2023-01-08T07:51:26.362Z,5.21
2023-01-08T07:53:56.468Z,5.18
2023-01-08T07:56:26.087Z,5.16
2023-01-08T07:58:54.456Z,5.15
2023-01-08T08:01:26.331Z,5.22
2023-01-08T08:03:54.913Z,5.27
2023-01-08T08:06:23.267Z,5.26
2023-01-08T08:08:51.524Z,5.33
2023-01-08T08:11:19.967Z,5.29
2023-01-08T08:13:49.708Z,5.25
2023-01-08T08:16:19.122Z,5.08
2023-01-08T08:18:49.217Z,5.18
2023-01-08T08:21:17.563Z,4.98
2023-01-08T08:23:45.881Z,5.24
2023-01-08T08:26:14.381Z,5.25
2023-01-08T08:28:42.902Z,5.29
2023-01-08T08:31:11.314Z,5.30
2023-01-08T08:33:39.605Z,5.32
2023-01-08T08:36:10.713Z,5.35
2023-01-08T08:38:40.003Z,5.21
2023-01-08T08:41:08.863Z,5.38
2023-01-08T08:43:37.193Z,5.41
2023-01-08T08:46:05.750Z,5.41
2023-01-08T08:48:34.209Z,5.44
2023-01-08T08:51:02.570Z,5.41
2023-01-08T08:53:32.244Z,5.41
2023-01-08T08:56:00.625Z,5.40
2023-01-08T08:58:29.100Z,5.35
2023-01-08T09:01:02.145Z,5.32
2023-01-08T09:03:30.826Z,5.35
2023-01-08T09:05:59.969Z,5.31
2023-01-08T09:08:28.405Z,5.24
2023-01-08T09:10:58.287Z,4.90
2023-01-08T09:13:26.589Z,5.35
2023-01-08T09:15:55.233Z,5.27
2023-01-08T09:18:23.659Z,5.25
2023-01-08T09:20:51.950Z,5.28
2023-01-08T09:23:20.304Z,5.23
2023-01-08T09:25:48.545Z,5.24
2023-01-08T09:28:18.266Z,5.27
2023-01-08T09:30:46.654Z,5.13
2023-01-08T09:33:15.057Z,5.25
2023-01-08T09:35:45.647Z,5.28
2023-01-08T09:38:13.966Z,5.32
2023-01-08T09:40:51.566Z,3.67
2023-01-08T09:43:22.963Z,5.03
2023-01-08T09:45:54.901Z,5.30
2023-01-08T09:48:27.729Z,5.32
2023-01-08T09:50:56.321Z,5.32
2023-01-08T09:53:25.913Z,5.50
2023-01-08T09:56:09.228Z,5.45
2023-01-08T09:58:46.954Z,5.44
2023-01-08T10:01:18.314Z,5.45
2023-01-08T10:03:50.747Z,5.46
2023-01-08T10:06:20.007Z,5.53
2023-01-08T10:08:48.396Z,5.50
2023-01-08T10:11:17.697Z,5.49
2023-01-08T10:13:52.155Z,5.70
2023-01-08T10:16:27.376Z,5.55
2023-01-08T10:18:55.751Z,5.19
2023-01-08T10:21:30.948Z,5.47
2023-01-08T10:23:59.407Z,5.46
2023-01-08T10:26:30.388Z,5.13
2023-01-08T10:29:12.840Z,5.45
2023-01-08T10:31:48.561Z,5.46
2023-01-08T10:34:34.034Z,5.46
2023-01-08T10:37:02.500Z,5.55
2023-01-08T10:39:33.344Z,5.64
2023-01-08T10:42:07.784Z,5.40
2023-01-08T10:44:38.458Z,5.63
2023-01-08T10:47:07.985Z,5.67
2023-01-08T10:49:41.985Z,5.70
2023-01-08T10:52:27.935Z,5.71
2023-01-08T10:54:57.065Z,5.86
2023-01-08T10:57:27.881Z,5.76
2023-01-08T10:59:58.240Z,5.74
2023-01-08T11:02:36.511Z,5.74
2023-01-08T11:05:10.223Z,5.61
2023-01-08T11:07:40.425Z,5.84
2023-01-08T11:10:23.072Z,5.84
2023-01-08T11:12:56.899Z,5.83
2023-01-08T11:15:33.346Z,5.55
2023-01-08T11:18:12.772Z,5.72
2023-01-08T11:20:42.175Z,5.80
2023-01-08T11:23:18.344Z,5.91
2023-01-08T11:26:00.474Z,5.94
2023-01-08T11:28:42.483Z,6.00
2023-01-08T11:31:19.249Z,6.01
2023-01-08T11:33:52.235Z,6.01
2023-01-08T11:36:26.573Z,6.03
2023-01-08T11:38:54.952Z,5.78
2023-01-08T11:41:38.159Z,5.56
2023-01-08T11:44:22.273Z,5.79
2023-01-08T11:47:03.681Z,5.99
2023-01-08T11:49:53.400Z,6.03
2023-01-08T11:52:34.850Z,6.03
2023-01-08T11:55:20.363Z,6.02
2023-01-08T11:58:01.416Z,6.00
2023-01-08T12:00:39.714Z,6.04
2023-01-08T12:03:22.386Z,6.01
2023-01-08T12:05:58.261Z,5.92
2023-01-08T12:08:37.550Z,6.07
2023-01-08T12:11:17.947Z,5.99
2023-01-08T12:14:01.689Z,5.94
2023-01-08T12:16:41.484Z,6.00
2023-01-08T12:19:21.802Z,6.01
2023-01-08T12:22:17.790Z,5.62
2023-01-08T12:25:09.627Z,6.01
2023-01-08T12:27:57.829Z,6.03
2023-01-08T12:30:36.675Z,5.82
2023-01-08T12:33:10.252Z,6.04
2023-01-08T12:35:43.767Z,6.04
2023-01-08T12:38:15.253Z,5.78
2023-01-08T12:40:48.418Z,5.91
2023-01-08T12:43:22.867Z,5.95
2023-01-08T12:45:55.384Z,5.61
2023-01-08T12:48:26.985Z,5.89
2023-01-08T12:51:18.309Z,6.01
2023-01-08T12:53:57.351Z,6.02
2023-01-08T12:56:33.692Z,5.31
2023-01-08T12:59:13.014Z,5.79
2023-01-08T13:01:48.939Z,5.98
2023-01-08T13:04:17.553Z,5.94
2023-01-08T13:07:01.059Z,5.90
2023-01-08T13:09:30.014Z,5.79
2023-01-08T13:12:00.272Z,5.93
2023-01-08T13:14:29.771Z,5.72
2023-01-08T13:17:06.409Z,5.85
2023-01-08T13:19:42.052Z,5.95
2023-01-08T13:22:25.945Z,6.00
2023-01-08T13:25:09.114Z,6.08
2023-01-08T13:27:37.510Z,5.96
2023-01-08T13:30:21.248Z,5.98
2023-01-08T13:32:50.279Z,5.95
2023-01-08T13:35:26.133Z,5.92
2023-01-08T13:38:15.415Z,5.94
2023-01-08T13:40:56.845Z,5.99
2023-01-08T13:43:29.912Z,5.84
2023-01-08T13:46:15.763Z,5.96
2023-01-08T13:48:52.168Z,5.96
2023-01-08T13:51:35.136Z,5.94
2023-01-08T13:54:17.613Z,5.82
2023-01-08T13:56:49.016Z,5.93
2023-01-08T13:59:29.751Z,6.01
2023-01-08T14:02:00.684Z,5.97
2023-01-08T14:04:29.244Z,5.98
2023-01-08T14:07:14.548Z,5.82
2023-01-08T14:09:44.523Z,5.94
2023-01-08T14:12:16.279Z,5.94
2023-01-08T14:14:50.078Z,5.92
2023-01-08T14:17:20.191Z,5.93
2023-01-08T14:19:48.998Z,5.84
2023-01-08T14:22:24.677Z,5.89
2023-01-08T14:24:59.754Z,5.96
2023-01-08T14:27:30.415Z,5.94
2023-01-08T14:29:59.368Z,6.05
2023-01-08T14:32:30.432Z,6.06
2023-01-08T14:35:00.919Z,4.62
2023-01-08T14:37:29.280Z,5.95
2023-01-08T14:39:59.005Z,6.00
2023-01-08T14:42:47.420Z,6.07
2023-01-08T14:45:20.566Z,5.84
2023-01-08T14:47:50.784Z,5.36
2023-01-08T14:50:26.387Z,5.97
2023-01-08T14:52:57.690Z,6.05
2023-01-08T14:55:29.416Z,4.96
2023-01-08T14:57:58.712Z,5.78
2023-01-08T15:00:29.598Z,6.05
2023-01-08T15:02:58.681Z,6.07
2023-01-08T15:05:30.068Z,6.02
2023-01-08T15:08:04.514Z,5.85
2023-01-08T15:10:42.825Z,5.75
2023-01-08T15:13:23.931Z,5.93
2023-01-08T15:15:58.029Z,5.99
2023-01-08T15:18:27.068Z,5.91
2023-01-08T15:20:56.449Z,5.41
2023-01-08T15:23:33.688Z,5.58
2023-01-08T15:26:03.817Z,5.80
2023-01-08T15:28:32.198Z,5.99
2023-01-08T15:31:00.810Z,5.91
2023-01-08T15:33:29.176Z,5.95
2023-01-08T15:35:58.498Z,5.94
2023-01-08T15:38:27.097Z,5.92
2023-01-08T15:40:56.560Z,5.90
2023-01-08T15:43:25.749Z,5.85
2023-01-08T15:45:54.264Z,5.80
2023-01-08T15:48:23.615Z,5.41
2023-01-08T15:50:53.586Z,5.98
2023-01-08T15:53:23.872Z,5.71
2023-01-08T15:55:53.038Z,5.60
2023-01-08T15:58:21.488Z,5.92
2023-01-08T16:00:51.678Z,6.06
2023-01-08T16:03:21.329Z,5.23
2023-01-08T16:05:50.000Z,5.77
2023-01-08T16:08:18.529Z,5.84
2023-01-08T16:10:47.276Z,5.86
2023-01-08T16:13:15.594Z,5.77
2023-01-08T16:15:43.961Z,5.92
2023-01-08T16:18:13.862Z,5.70
2023-01-08T16:20:42.436Z,5.97
2023-01-08T16:23:10.907Z,5.56
2023-01-08T16:25:41.674Z,5.80
2023-01-08T16:28:09.937Z,5.58
2023-01-08T16:30:42.752Z,5.72
2023-01-08T16:33:11.697Z,5.67
2023-01-08T16:35:41.792Z,5.65
2023-01-08T16:38:13.615Z,5.47
2023-01-08T16:40:41.910Z,5.63
2023-01-08T16:43:12.991Z,5.50
2023-01-08T16:45:47.225Z,5.69
2023-01-08T16:48:16.565Z,5.68
2023-01-08T16:50:46.771Z,5.45
2023-01-08T16:53:17.699Z,5.47
2023-01-08T16:55:46.152Z,5.74
2023-01-08T16:58:14.465Z,5.75
2023-01-08T17:00:43.172Z,5.66
2023-01-08T17:03:11.545Z,5.64
2023-01-08T17:05:39.804Z,5.68
2023-01-08T17:08:10.923Z,5.71
2023-01-08T17:10:40.919Z,5.73
2023-01-08T17:13:09.437Z,4.98
2023-01-08T17:15:38.378Z,5.34
2023-01-08T17:18:07.291Z,5.73
2023-01-08T17:20:36.056Z,5.78
2023-01-08T17:23:04.612Z,4.67
2023-01-08T17:25:34.490Z,5.83
2023-01-08T17:28:02.834Z,5.84
2023-01-08T17:30:31.142Z,5.82
2023-01-08T17:33:00.362Z,5.60
2023-01-08T17:35:29.306Z,4.28
2023-01-08T17:37:57.919Z,5.83
2023-01-08T17:40:26.339Z,5.88
2023-01-08T17:42:56.447Z,5.65
2023-01-08T17:45:25.351Z,5.72
2023-01-08T17:47:53.687Z,5.94
2023-01-08T17:50:22.432Z,5.94
2023-01-08T17:52:50.781Z,5.82
2023-01-08T17:55:19.852Z,5.74
2023-01-08T17:57:48.122Z,6.13
2023-01-08T18:00:19.554Z,5.90
2023-01-08T18:02:48.398Z,6.09
2023-01-08T18:05:17.090Z,6.11
2023-01-08T18:07:45.570Z,5.99
2023-01-08T18:10:14.375Z,5.96
2023-01-08T18:12:42.738Z,5.96
2023-01-08T18:15:16.370Z,6.02
2023-01-08T18:17:46.554Z,5.98
2023-01-08T18:20:15.055Z,6.00
2023-01-08T18:22:46.314Z,5.99
2023-01-08T18:25:15.204Z,6.05
2023-01-08T18:27:43.681Z,6.16
2023-01-08T18:30:14.199Z,5.98
2023-01-08T18:32:42.594Z,6.13
2023-01-08T18:35:15.481Z,5.92
2023-01-08T18:37:43.878Z,5.89
2023-01-08T18:40:13.234Z,5.71
2023-01-08T18:42:41.606Z,5.98
2023-01-08T18:45:11.669Z,5.86
2023-01-08T18:47:40.033Z,5.99
2023-01-08T18:50:11.267Z,5.80
2023-01-08T18:52:42.180Z,6.01
2023-01-08T18:55:12.989Z,5.88
2023-01-08T18:57:42.187Z,5.81
2023-01-08T19:00:12.089Z,5.65
2023-01-08T19:02:40.845Z,5.82
2023-01-08T19:05:09.819Z,5.45
2023-01-08T19:07:38.296Z,5.70
2023-01-08T19:10:08.905Z,5.74
2023-01-08T19:12:38.533Z,5.79
2023-01-08T19:15:08.295Z,5.74
2023-01-08T19:17:37.067Z,5.51
2023-01-08T19:20:06.276Z,5.68
2023-01-08T19:22:34.622Z,5.74
2023-01-08T19:25:03.003Z,5.79
2023-01-08T19:27:34.740Z,5.62
2023-01-08T19:30:03.492Z,5.36
2023-01-08T19:32:31.839Z,5.54
2023-01-08T19:35:01.887Z,5.63
2023-01-08T19:37:33.101Z,5.65
2023-01-08T19:40:03.736Z,5.49
2023-01-08T19:42:52.750Z,5.62
2023-01-08T19:45:22.298Z,5.35
2023-01-08T19:47:54.077Z,5.61
2023-01-08T19:50:25.521Z,4.80
2023-01-08T19:52:56.800Z,5.44
2023-01-08T19:55:26.131Z,5.46
2023-01-08T19:57:57.364Z,5.47
2023-01-08T20:00:26.226Z,5.60
2023-01-08T20:02:55.052Z,5.48
2023-01-08T20:05:24.486Z,5.50
2023-01-08T20:07:53.394Z,5.42
2023-01-08T20:10:22.725Z,5.29
2023-01-08T20:12:51.629Z,5.38
2023-01-08T20:15:22.412Z,5.38
2023-01-08T20:17:51.078Z,5.46
2023-01-08T20:20:20.090Z,5.51
2023-01-08T20:22:48.883Z,5.42
2023-01-08T20:25:18.274Z,5.55
2023-01-08T20:27:46.763Z,5.55
2023-01-08T20:30:15.933Z,5.47
2023-01-08T20:32:45.936Z,5.54
2023-01-08T20:35:15.048Z,5.51
2023-01-08T20:37:45.338Z,5.47
2023-01-08T20:40:15.231Z,5.43
2023-01-08T20:42:46.376Z,5.48
2023-01-08T20:45:15.208Z,5.46
2023-01-08T20:47:43.792Z,5.45
2023-01-08T20:50:20.030Z,5.49
2023-01-08T20:52:49.118Z,5.44
2023-01-08T20:55:18.604Z,5.48
2023-01-08T20:57:47.198Z,5.55
2023-01-08T21:00:16.268Z,5.55
2023-01-08T21:02:44.966Z,5.53
2023-01-08T21:05:15.813Z,5.53
2023-01-08T21:07:45.549Z,5.52
2023-01-08T21:10:14.024Z,5.56
2023-01-08T21:12:45.266Z,5.44
2023-01-08T21:15:14.312Z,5.61
2023-01-08T21:17:43.472Z,5.61
2023-01-08T21:20:14.863Z,5.64
2023-01-08T21:22:43.398Z,5.63
2023-01-08T21:25:12.533Z,5.38
2023-01-08T21:27:40.999Z,5.65
2023-01-08T21:30:11.555Z,5.65
2023-01-08T21:32:41.382Z,5.69
2023-01-08T21:35:11.845Z,5.80
2023-01-08T21:37:43.134Z,5.79
2023-01-08T21:40:14.081Z,5.82
2023-01-08T21:43:00.511Z,5.81
2023-01-08T21:45:30.355Z,5.81
2023-01-08T21:48:00.290Z,5.83
2023-01-08T21:50:29.759Z,5.83
2023-01-08T21:53:18.494Z,5.83
2023-01-08T21:55:48.511Z,5.79
2023-01-08T21:58:19.065Z,5.72
2023-01-08T22:00:48.786Z,5.84
2023-01-08T22:03:17.199Z,5.90
2023-01-08T22:05:45.621Z,5.86
2023-01-08T22:08:18.588Z,5.61
2023-01-08T22:10:46.954Z,5.82
2023-01-08T22:13:15.264Z,5.80
2023-01-08T22:15:44.766Z,5.74
2023-01-08T22:18:13.178Z,5.73
2023-01-08T22:20:43.077Z,5.71
2023-01-08T22:23:11.586Z,5.54
2023-01-08T22:25:42.577Z,5.66
2023-01-08T22:28:11.678Z,5.62
2023-01-08T22:30:40.900Z,5.03
2023-01-08T22:33:09.288Z,5.61
2023-01-08T22:35:40.154Z,5.53
2023-01-08T22:38:08.566Z,5.67
2023-01-08T22:40:38.861Z,5.68
2023-01-08T22:43:08.723Z,5.72
2023-01-08T22:45:37.506Z,5.48
2023-01-08T22:48:06.135Z,5.31
2023-01-08T22:50:34.537Z,5.67
2023-01-08T22:53:02.917Z,5.58
2023-01-08T22:55:31.253Z,5.73
2023-01-08T22:57:59.558Z,5.73
2023-01-08T23:00:29.325Z,5.72
2023-01-08T23:02:57.835Z,5.74
2023-01-08T23:05:26.199Z,5.76
2023-01-08T23:07:54.586Z,5.77
2023-01-08T23:10:23.039Z,5.78
2023-01-08T23:12:51.462Z,5.54
2023-01-08T23:15:20.966Z,5.75
2023-01-08T23:17:52.613Z,5.62
2023-01-08T23:20:23.364Z,5.77
2023-01-08T23:22:52.049Z,5.75
2023-01-08T23:25:20.375Z,5.74
2023-01-08T23:27:48.827Z,5.77
2023-01-08T23:30:17.204Z,5.72
2023-01-08T23:32:45.536Z,5.69
2023-01-08T23:35:15.447Z,5.65
2023-01-08T23:37:44.050Z,5.61
2023-01-08T23:40:13.477Z,5.53
2023-01-08T23:42:41.901Z,5.54
2023-01-08T23:45:11.356Z,5.56
2023-01-08T23:47:39.881Z,5.54
2023-01-08T23:50:09.845Z,5.52
2023-01-08T23:52:39.644Z,5.55
2023-01-08T23:55:08.316Z,5.55
2023-01-08T23:57:36.674Z,5.61
